createdAt,value
2018-07-26T00:00:59.158Z,0.00
2018-07-26T00:01:59.272Z,0.00
2018-07-26T00:02:59.110Z,0.00
2018-07-26T00:03:59.279Z,0.00
2018-07-26T00:04:59.565Z,0.00
2018-07-26T00:05:59.439Z,0.00
2018-07-26T00:06:59.498Z,0.00
2018-07-26T00:07:59.195Z,0.00
2018-07-26T00:08:59.416Z,0.00
2018-07-26T00:09:59.323Z,0.00
2018-07-26T00:10:59.206Z,0.00
2018-07-26T00:11:59.315Z,0.00
2018-07-26T00:12:59.230Z,0.00
2018-07-26T00:13:59.330Z,0.00
2018-07-26T00:14:59.141Z,0.00
2018-07-26T00:15:59.333Z,0.00
2018-07-26T00:16:59.330Z,0.00
2018-07-26T00:17:59.234Z,0.00
2018-07-26T00:18:59.285Z,0.00
2018-07-26T00:19:59.241Z,0.00
2018-07-26T00:20:59.406Z,0.00
2018-07-26T00:21:59.303Z,0.00
2018-07-26T00:22:59.389Z,0.00
2018-07-26T00:23:59.395Z,0.00
2018-07-26T00:24:59.334Z,0.00
2018-07-26T00:25:59.246Z,0.00
2018-07-26T00:26:59.341Z,0.00
2018-07-26T00:27:59.421Z,0.00
2018-07-26T00:28:59.288Z,0.00
2018-07-26T00:29:59.271Z,0.00
2018-07-26T00:30:59.407Z,0.00
2018-07-26T00:31:59.363Z,0.00
2018-07-26T00:32:59.420Z,0.00
2018-07-26T00:33:59.550Z,0.00
2018-07-26T00:34:59.333Z,0.00
2018-07-26T00:35:59.398Z,0.00
2018-07-26T00:36:59.395Z,0.00
2018-07-26T00:37:59.300Z,0.00
2018-07-26T00:38:59.725Z,0.00
2018-07-26T00:39:59.605Z,0.00
2018-07-26T00:40:59.416Z,0.00
2018-07-26T00:41:59.459Z,0.00
2018-07-26T00:42:59.384Z,0.00
2018-07-26T00:43:59.376Z,0.00
2018-07-26T00:44:59.359Z,0.00
2018-07-26T00:45:59.382Z,0.00
2018-07-26T00:46:59.531Z,0.00
2018-07-26T00:47:59.450Z,0.00
2018-07-26T00:48:59.521Z,0.00
2018-07-26T00:49:59.432Z,0.00
2018-07-26T00:50:59.354Z,0.00
2018-07-26T00:51:59.501Z,0.00
2018-07-26T00:52:59.390Z,0.00
2018-07-26T00:53:59.409Z,0.00
2018-07-26T00:54:59.431Z,0.00
2018-07-26T00:55:59.512Z,0.00
2018-07-26T00:56:59.866Z,0.00
2018-07-26T00:57:59.509Z,0.00
2018-07-26T00:58:59.512Z,0.00
2018-07-26T00:59:59.516Z,0.00
2018-07-26T01:00:59.475Z,0.00
2018-07-26T01:01:59.638Z,0.00
2018-07-26T01:02:59.540Z,0.00
2018-07-26T01:03:59.441Z,0.00
2018-07-26T01:04:59.503Z,0.00
2018-07-26T01:05:59.457Z,0.00
2018-07-26T01:06:59.506Z,0.00
2018-07-26T01:07:59.513Z,0.00
2018-07-26T01:08:59.584Z,0.00
2018-07-26T01:09:59.591Z,0.00
2018-07-26T01:10:59.502Z,0.00
2018-07-26T01:11:59.496Z,0.00
2018-07-26T01:12:59.497Z,0.00
2018-07-26T01:13:59.479Z,0.00
2018-07-26T01:14:59.626Z,0.00
2018-07-26T01:15:59.479Z,0.00
2018-07-26T01:16:59.618Z,0.00
2018-07-26T01:17:59.620Z,0.00
2018-07-26T01:18:59.635Z,0.00
2018-07-26T01:19:59.622Z,0.00
2018-07-26T01:20:59.565Z,0.00
2018-07-26T01:21:59.574Z,0.00
2018-07-26T01:22:59.627Z,0.00
2018-07-26T01:23:59.638Z,0.00
2018-07-26T01:24:59.586Z,0.00
2018-07-26T01:25:59.674Z,0.00
2018-07-26T01:26:59.580Z,0.00
2018-07-26T01:27:59.621Z,0.00
2018-07-26T01:28:59.627Z,0.00
2018-07-26T01:29:59.557Z,0.00
2018-07-26T01:30:59.574Z,0.00
2018-07-26T01:31:59.646Z,0.00
2018-07-26T01:32:59.697Z,0.00
2018-07-26T01:33:59.607Z,0.00
2018-07-26T01:34:59.620Z,0.00
2018-07-26T01:35:59.664Z,0.00
2018-07-26T01:36:59.589Z,0.00
2018-07-26T01:37:59.765Z,0.00
2018-07-26T01:38:59.609Z,0.00
2018-07-26T01:39:59.811Z,0.00
2018-07-26T01:40:59.703Z,0.00
2018-07-26T01:41:59.691Z,0.00
2018-07-26T01:42:59.624Z,0.00
2018-07-26T01:43:59.702Z,0.00
2018-07-26T01:44:59.685Z,0.00
2018-07-26T01:45:59.668Z,0.00
2018-07-26T01:46:59.727Z,0.00
2018-07-26T01:47:59.692Z,0.00
2018-07-26T01:48:59.608Z,0.00
2018-07-26T01:49:59.793Z,0.00
2018-07-26T01:50:59.848Z,0.00
2018-07-26T01:51:59.727Z,0.00
2018-07-26T01:52:59.724Z,0.00
2018-07-26T01:53:59.784Z,0.00
2018-07-26T01:54:59.781Z,0.00
2018-07-26T01:55:59.723Z,0.00
2018-07-26T01:56:59.781Z,0.00
2018-07-26T01:57:59.742Z,0.00
2018-07-26T01:58:59.752Z,0.00
2018-07-26T01:59:59.702Z,0.00
2018-07-26T02:00:59.704Z,0.00
2018-07-26T02:01:59.849Z,0.00
2018-07-26T02:02:59.747Z,0.00
2018-07-26T02:03:59.763Z,0.00
2018-07-26T02:04:59.798Z,0.00
2018-07-26T02:05:59.713Z,0.00
2018-07-26T02:06:59.799Z,0.00
2018-07-26T02:07:59.761Z,0.00
2018-07-26T02:08:59.759Z,0.00
2018-07-26T02:09:59.829Z,0.00
2018-07-26T02:10:59.769Z,0.00
2018-07-26T02:11:59.935Z,0.00
2018-07-26T02:12:59.705Z,0.00
2018-07-26T02:13:59.844Z,0.00
2018-07-26T02:14:59.817Z,0.00
2018-07-26T02:15:59.776Z,0.00
2018-07-26T02:16:59.859Z,0.00
2018-07-26T02:17:59.880Z,0.00
2018-07-26T02:19:00.406Z,0.00
2018-07-26T02:19:59.832Z,0.00
2018-07-26T02:20:59.857Z,0.00
2018-07-26T02:21:59.820Z,0.00
2018-07-26T02:22:59.917Z,0.00
2018-07-26T02:23:59.790Z,0.00
2018-07-26T02:24:59.836Z,0.00
2018-07-26T02:25:59.901Z,0.00
2018-07-26T02:26:59.888Z,0.00
2018-07-26T02:27:59.932Z,0.00
2018-07-26T02:28:59.897Z,0.00
2018-07-26T02:29:59.929Z,0.00
2018-07-26T02:30:59.949Z,0.00
2018-07-26T02:31:59.878Z,0.00
2018-07-26T02:32:59.910Z,0.00
2018-07-26T02:33:59.876Z,0.00
2018-07-26T02:34:59.960Z,0.00
2018-07-26T02:35:59.913Z,0.00
2018-07-26T02:36:59.840Z,0.00
2018-07-26T02:37:59.957Z,0.00
2018-07-26T02:38:59.962Z,0.00
2018-07-26T02:39:59.946Z,0.00
2018-07-26T02:40:59.933Z,0.00
2018-07-26T02:42:00.429Z,0.00
2018-07-26T02:42:59.993Z,0.00
2018-07-26T02:44:00.008Z,0.00
2018-07-26T02:45:00.018Z,0.00
2018-07-26T02:45:59.881Z,0.00
2018-07-26T02:47:00.014Z,0.00
2018-07-26T02:48:00.074Z,0.00
2018-07-26T02:48:59.982Z,0.00
2018-07-26T02:49:59.942Z,0.00
2018-07-26T02:51:00.035Z,0.00
2018-07-26T02:52:00.046Z,0.00
2018-07-26T02:52:59.950Z,0.00
2018-07-26T02:54:00.075Z,0.00
2018-07-26T02:55:00.069Z,0.00
2018-07-26T02:56:00.012Z,0.00
2018-07-26T02:57:00.011Z,0.00
2018-07-26T02:58:00.044Z,0.00
2018-07-26T02:59:00.013Z,0.00
2018-07-26T03:00:00.115Z,0.00
2018-07-26T03:00:59.999Z,0.00
2018-07-26T03:02:00.050Z,0.00
2018-07-26T03:02:59.995Z,0.00
2018-07-26T03:04:00.071Z,0.00
2018-07-26T03:05:00.026Z,0.00
2018-07-26T03:06:00.049Z,0.00
2018-07-26T03:07:00.022Z,4.00
2018-07-26T03:08:00.425Z,4.00
2018-07-26T03:09:00.124Z,4.00
2018-07-26T03:10:00.423Z,0.00
2018-07-26T03:11:00.092Z,4.00
2018-07-26T03:12:00.008Z,4.00
2018-07-26T03:13:00.098Z,4.00
2018-07-26T03:14:00.093Z,4.00
2018-07-26T03:15:00.022Z,4.00
2018-07-26T03:16:00.041Z,4.00
2018-07-26T03:17:00.032Z,4.00
2018-07-26T03:18:00.120Z,4.00
2018-07-26T03:19:00.099Z,8.00
2018-07-26T03:20:00.137Z,8.00
2018-07-26T03:21:00.134Z,8.00
2018-07-26T03:22:00.109Z,8.00
2018-07-26T03:23:00.149Z,12.00
2018-07-26T03:24:00.073Z,12.00
2018-07-26T03:25:00.028Z,12.00
2018-07-26T03:26:00.195Z,12.00
2018-07-26T03:27:00.046Z,12.00
2018-07-26T03:28:00.133Z,16.00
2018-07-26T03:29:00.184Z,20.00
2018-07-26T03:30:00.144Z,20.00
2018-07-26T03:31:00.143Z,20.00
2018-07-26T03:32:00.190Z,24.00
2018-07-26T03:33:00.123Z,28.00
2018-07-26T03:34:00.148Z,28.00
2018-07-26T03:35:00.198Z,32.00
2018-07-26T03:36:00.085Z,36.00
2018-07-26T03:37:00.182Z,40.00
2018-07-26T03:38:00.213Z,40.00
2018-07-26T03:39:00.249Z,44.00
2018-07-26T03:40:00.210Z,52.00
2018-07-26T03:41:00.192Z,52.00
2018-07-26T03:42:00.157Z,60.00
2018-07-26T03:43:00.262Z,64.00
2018-07-26T03:44:00.216Z,68.00
2018-07-26T03:45:00.326Z,72.00
2018-07-26T03:46:00.346Z,76.00
2018-07-26T03:47:00.256Z,80.00
2018-07-26T03:48:00.369Z,88.00
2018-07-26T03:49:00.233Z,92.00
2018-07-26T03:50:00.241Z,96.00
2018-07-26T03:51:00.293Z,104.00
2018-07-26T03:52:00.303Z,108.00
2018-07-26T03:53:00.277Z,116.00
2018-07-26T03:54:00.246Z,124.00
2018-07-26T03:55:00.324Z,132.00
2018-07-26T03:56:00.325Z,144.00
2018-07-26T03:57:00.270Z,152.00
2018-07-26T03:58:00.233Z,160.00
2018-07-26T03:59:00.290Z,176.00
2018-07-26T04:00:00.223Z,188.00
2018-07-26T04:01:00.202Z,200.00
2018-07-26T04:02:00.337Z,216.00
2018-07-26T04:03:00.266Z,228.00
2018-07-26T04:04:00.405Z,244.00
2018-07-26T04:05:00.274Z,264.00
2018-07-26T04:06:00.306Z,280.00
2018-07-26T04:07:00.345Z,296.00
2018-07-26T04:08:00.319Z,308.00
2018-07-26T04:09:00.355Z,328.00
2018-07-26T04:10:00.303Z,344.00
2018-07-26T04:11:00.373Z,356.00
2018-07-26T04:12:00.242Z,372.00
2018-07-26T04:13:00.319Z,392.00
2018-07-26T04:14:00.956Z,408.00
2018-07-26T04:15:00.339Z,428.00
2018-07-26T04:16:00.492Z,452.00
2018-07-26T04:17:00.434Z,472.00
2018-07-26T04:18:00.312Z,496.00
2018-07-26T04:19:00.465Z,520.00
2018-07-26T04:20:00.473Z,548.00
2018-07-26T04:21:00.470Z,580.00
2018-07-26T04:22:00.438Z,612.00
2018-07-26T04:23:00.409Z,648.00
2018-07-26T04:24:00.416Z,692.00
2018-07-26T04:25:00.393Z,732.00
2018-07-26T04:26:00.456Z,772.00
2018-07-26T04:27:00.962Z,816.00
2018-07-26T04:28:00.473Z,852.00
2018-07-26T04:29:00.524Z,888.00
2018-07-26T04:30:00.531Z,916.00
2018-07-26T04:31:00.374Z,944.00
2018-07-26T04:32:00.452Z,980.00
2018-07-26T04:33:00.480Z,1020.00
2018-07-26T04:34:00.404Z,1064.00
2018-07-26T04:35:00.368Z,1104.00
2018-07-26T04:36:00.447Z,1140.00
2018-07-26T04:37:00.537Z,1176.00
2018-07-26T04:38:00.499Z,1204.00
2018-07-26T04:39:00.547Z,1232.00
2018-07-26T04:40:00.519Z,1272.00
2018-07-26T04:41:00.445Z,1328.00
2018-07-26T04:42:00.572Z,1392.00
2018-07-26T04:43:00.575Z,1472.00
2018-07-26T04:44:00.456Z,1552.00
2018-07-26T04:45:00.571Z,1636.00
2018-07-26T04:46:00.585Z,1712.00
2018-07-26T04:47:00.483Z,1792.00
2018-07-26T04:48:00.394Z,1864.00
2018-07-26T04:49:00.567Z,1932.00
2018-07-26T04:50:00.467Z,1996.00
2018-07-26T04:51:00.484Z,2048.00
2018-07-26T04:52:00.454Z,2100.00
2018-07-26T04:53:00.565Z,2168.00
2018-07-26T04:54:00.602Z,2252.00
2018-07-26T04:55:00.680Z,2364.00
2018-07-26T04:56:00.550Z,2480.00
2018-07-26T04:57:00.662Z,2584.00
2018-07-26T04:58:00.569Z,2668.00
2018-07-26T04:59:00.655Z,2708.00
2018-07-26T05:00:00.577Z,2740.00
2018-07-26T05:01:00.543Z,2784.00
2018-07-26T05:02:00.594Z,2836.00
2018-07-26T05:03:00.642Z,2888.00
2018-07-26T05:04:00.687Z,2940.00
2018-07-26T05:05:00.703Z,2980.00
2018-07-26T05:06:00.562Z,3032.00
2018-07-26T05:07:00.644Z,3104.00
2018-07-26T05:08:00.708Z,3192.00
2018-07-26T05:09:00.579Z,3288.00
2018-07-26T05:10:00.626Z,3376.00
2018-07-26T05:11:00.717Z,3444.00
2018-07-26T05:12:00.551Z,3512.00
2018-07-26T05:13:00.666Z,3600.00
2018-07-26T05:14:00.655Z,3704.00
2018-07-26T05:15:00.729Z,3796.00
2018-07-26T05:16:00.607Z,3852.00
2018-07-26T05:17:00.675Z,3892.00
2018-07-26T05:18:00.612Z,3952.00
2018-07-26T05:19:00.792Z,4044.00
2018-07-26T05:20:00.759Z,4156.00
2018-07-26T05:21:00.673Z,4276.00
2018-07-26T05:22:00.717Z,4408.00
2018-07-26T05:23:00.607Z,4500.00
2018-07-26T05:24:00.687Z,4552.00
2018-07-26T05:25:00.732Z,4584.00
2018-07-26T05:26:00.743Z,4612.00
2018-07-26T05:27:00.806Z,4608.00
2018-07-26T05:28:00.726Z,4596.00
2018-07-26T05:29:00.827Z,4576.00
2018-07-26T05:30:00.969Z,4560.00
2018-07-26T05:31:03.568Z,4540.00
2018-07-26T05:32:02.651Z,4500.00
2018-07-26T05:33:01.497Z,4420.00
2018-07-26T05:34:00.668Z,4280.00
2018-07-26T05:35:00.715Z,4100.00
2018-07-26T05:36:01.495Z,3908.00
2018-07-26T05:37:00.739Z,3692.00
2018-07-26T05:38:01.017Z,3468.00
2018-07-26T05:39:00.759Z,3232.00
2018-07-26T05:40:00.743Z,3004.00
2018-07-26T05:41:00.732Z,2820.00
2018-07-26T05:42:00.794Z,2680.00
2018-07-26T05:43:05.885Z,2604.00
2018-07-26T05:44:08.297Z,2532.00
2018-07-26T05:45:05.553Z,2432.00
2018-07-26T05:46:07.323Z,2316.00
2018-07-26T05:47:10.914Z,2196.00
2018-07-26T05:49:06.711Z,2024.00
2018-07-26T05:52:09.239Z,1896.00
2018-07-26T05:54:06.735Z,1784.00
2018-07-26T05:55:04.501Z,1824.00
2018-07-26T05:56:01.305Z,1944.00
2018-07-26T05:57:01.186Z,2040.00
2018-07-26T05:58:00.844Z,2208.00
2018-07-26T05:59:01.138Z,2392.00
2018-07-26T06:00:06.613Z,2636.00
2018-07-26T06:01:02.586Z,2856.00
2018-07-26T06:02:00.897Z,3040.00
2018-07-26T06:03:00.869Z,3148.00
2018-07-26T06:04:00.878Z,3328.00
2018-07-26T06:05:00.881Z,3516.00
2018-07-26T06:06:00.861Z,3688.00
2018-07-26T06:07:00.904Z,3820.00
2018-07-26T06:08:00.981Z,3956.00
2018-07-26T06:09:00.848Z,4112.00
2018-07-26T06:10:01.018Z,4268.00
2018-07-26T06:11:00.881Z,4436.00
2018-07-26T06:12:01.010Z,4604.00
2018-07-26T06:13:00.907Z,4728.00
2018-07-26T06:14:00.962Z,4772.00
2018-07-26T06:15:01.237Z,4840.00
2018-07-26T06:16:01.047Z,4968.00
2018-07-26T06:17:00.882Z,5144.00
2018-07-26T06:18:00.940Z,5384.00
2018-07-26T06:19:01.886Z,5612.00
2018-07-26T06:20:02.398Z,5776.00
2018-07-26T06:21:02.844Z,5880.00
2018-07-26T06:22:02.996Z,5988.00
2018-07-26T06:23:03.005Z,6176.00
2018-07-26T06:24:04.964Z,6412.00
2018-07-26T06:25:01.215Z,6600.00
2018-07-26T06:26:01.305Z,6768.00
2018-07-26T06:27:01.324Z,6832.00
2018-07-26T06:28:02.036Z,6832.00
2018-07-26T06:29:01.327Z,6956.00
2018-07-26T06:30:01.961Z,7068.00
2018-07-26T06:31:01.316Z,7192.00
2018-07-26T06:32:02.487Z,7316.00
2018-07-26T06:33:01.391Z,7424.00
2018-07-26T06:34:01.321Z,7548.00
2018-07-26T06:35:02.809Z,7644.00
2018-07-26T06:36:01.207Z,7788.00
2018-07-26T06:37:01.349Z,7908.00
2018-07-26T06:38:05.066Z,7920.00
2018-07-26T06:39:01.116Z,7872.00
2018-07-26T06:40:01.935Z,7916.00
2018-07-26T06:41:01.488Z,8068.00
2018-07-26T06:42:01.068Z,8140.00
2018-07-26T06:43:01.145Z,8252.00
2018-07-26T06:44:01.229Z,8372.00
2018-07-26T06:45:02.098Z,8572.00
2018-07-26T06:46:01.747Z,8784.00
2018-07-26T06:47:04.502Z,8944.00
2018-07-26T06:48:03.708Z,9004.00
2018-07-26T06:49:01.834Z,8984.00
2018-07-26T06:50:03.336Z,8968.00
2018-07-26T06:51:01.573Z,8952.00
2018-07-26T06:52:06.659Z,9000.00
2018-07-26T06:53:08.205Z,9140.00
2018-07-26T06:54:04.665Z,9404.00
2018-07-26T06:55:06.665Z,9568.00
2018-07-26T06:56:13.610Z,9804.00
2018-07-26T06:58:01.676Z,10092.00
2018-07-26T06:59:03.248Z,10088.00
2018-07-26T07:00:11.566Z,10032.00
2018-07-26T07:01:38.002Z,9952.00
2018-07-26T07:04:04.793Z,9700.00
2018-07-26T07:06:02.970Z,9564.00
2018-07-26T07:08:09.816Z,9960.00
2018-07-26T07:09:03.775Z,10268.00
2018-07-26T07:11:07.240Z,10900.00
2018-07-26T07:13:04.744Z,11208.00
2018-07-26T07:15:02.328Z,11116.00
2018-07-26T07:16:07.585Z,11040.00
2018-07-26T07:17:13.443Z,11060.00
2018-07-26T07:18:01.398Z,11236.00
2018-07-26T07:19:01.589Z,12796.00
2018-07-26T07:20:01.391Z,12920.00
2018-07-26T07:21:04.073Z,13800.00
2018-07-26T07:22:01.617Z,16572.00
2018-07-26T07:23:01.532Z,20064.00
2018-07-26T07:24:01.462Z,20288.00
2018-07-26T07:25:01.409Z,19584.00
2018-07-26T07:26:01.517Z,19872.00
2018-07-26T07:27:02.063Z,19776.00
2018-07-26T07:28:01.429Z,20768.00
2018-07-26T07:29:01.501Z,21312.00
2018-07-26T07:30:01.526Z,21312.00
2018-07-26T07:31:01.641Z,21888.00
2018-07-26T07:32:03.237Z,22528.00
2018-07-26T07:33:01.532Z,22752.00
2018-07-26T07:34:01.511Z,23168.00
2018-07-26T07:35:01.531Z,24096.00
2018-07-26T07:36:01.493Z,25056.00
2018-07-26T07:37:01.622Z,25856.00
2018-07-26T07:38:01.690Z,26944.00
2018-07-26T07:39:01.659Z,28096.00
2018-07-26T07:40:01.603Z,30464.00
2018-07-26T07:41:01.591Z,33312.00
2018-07-26T07:42:14.539Z,35680.00
2018-07-26T07:43:08.391Z,37696.00
2018-07-26T07:45:01.821Z,51520.00
2018-07-26T07:46:20.534Z,66080.00
2018-07-26T07:47:05.924Z,76448.00
2018-07-26T07:48:03.797Z,81152.00
2018-07-26T07:49:01.882Z,85856.00
2018-07-26T07:50:01.715Z,93600.00
2018-07-26T07:51:01.919Z,101792.00
2018-07-26T07:52:01.936Z,107424.00
2018-07-26T07:53:06.051Z,117504.00
2018-07-26T07:54:03.626Z,120256.00
2018-07-26T07:55:02.258Z,108352.00
2018-07-26T07:56:02.088Z,100672.00
2018-07-26T07:57:02.139Z,95424.00
2018-07-26T07:58:04.729Z,92384.00
2018-07-26T08:00:26.821Z,83264.00
2018-07-26T08:01:11.440Z,77504.00
2018-07-26T08:06:29.995Z,62944.00
2018-07-26T08:07:29.379Z,60960.00
2018-07-26T08:08:08.232Z,61984.00
2018-07-26T08:09:11.438Z,62496.00
2018-07-26T08:11:35.784Z,54496.00
2018-07-26T08:12:35.215Z,51168.00
2018-07-26T08:13:35.217Z,53536.00
2018-07-26T08:14:35.204Z,58720.00
2018-07-26T08:15:35.236Z,61632.00
2018-07-26T08:16:35.231Z,61568.00
2018-07-26T08:17:35.251Z,51264.00
2018-07-26T08:18:35.256Z,46464.00
2018-07-26T08:19:35.285Z,49088.00
2018-07-26T08:20:35.433Z,51872.00
2018-07-26T08:21:35.313Z,52096.00
2018-07-26T08:22:35.343Z,52704.00
2018-07-26T08:23:35.348Z,50976.00
2018-07-26T08:24:35.378Z,47744.00
2018-07-26T08:25:35.397Z,45888.00
2018-07-26T08:26:35.423Z,46464.00
2018-07-26T08:27:35.437Z,47872.00
2018-07-26T08:28:35.450Z,46112.00
2018-07-26T08:29:35.471Z,45056.00
2018-07-26T08:30:35.500Z,44992.00
2018-07-26T08:31:35.611Z,45600.00
2018-07-26T08:32:35.528Z,46144.00
2018-07-26T08:33:35.572Z,47648.00
2018-07-26T08:34:35.563Z,48768.00
2018-07-26T08:35:35.597Z,50240.00
2018-07-26T08:36:35.640Z,51264.00
2018-07-26T08:37:35.643Z,52608.00
2018-07-26T08:38:35.647Z,50880.00
2018-07-26T08:39:36.987Z,49312.00
2018-07-26T08:40:35.698Z,49952.00
2018-07-26T08:41:35.785Z,50944.00
2018-07-26T08:42:35.726Z,52672.00
2018-07-26T08:43:35.752Z,53568.00
2018-07-26T08:44:35.757Z,54592.00
2018-07-26T08:45:35.790Z,55776.00
2018-07-26T08:46:35.823Z,55744.00
2018-07-26T08:47:35.819Z,55264.00
2018-07-26T08:48:35.864Z,58432.00
2018-07-26T08:49:35.872Z,67520.00
2018-07-26T08:50:35.895Z,70528.00
2018-07-26T08:51:35.898Z,67680.00
2018-07-26T08:52:35.936Z,70144.00
2018-07-26T08:53:36.593Z,78592.00
2018-07-26T08:54:35.965Z,79840.00
2018-07-26T08:55:35.987Z,73312.00
2018-07-26T08:56:36.045Z,63264.00
2018-07-26T08:57:36.047Z,56640.00
2018-07-26T08:58:36.063Z,52576.00
2018-07-26T08:59:36.135Z,50912.00
2018-07-26T09:00:36.139Z,50560.00
2018-07-26T09:01:36.129Z,50528.00
2018-07-26T09:02:36.218Z,50656.00
2018-07-26T09:03:36.188Z,50848.00
2018-07-26T09:04:36.172Z,50976.00
2018-07-26T09:05:36.190Z,50848.00
2018-07-26T09:06:36.240Z,50752.00
2018-07-26T09:07:36.248Z,51200.00
2018-07-26T09:08:36.280Z,50880.00
2018-07-26T09:09:36.349Z,50688.00
2018-07-26T09:10:36.421Z,50912.00
2018-07-26T09:11:36.418Z,50624.00
2018-07-26T09:12:36.368Z,51008.00
2018-07-26T09:13:36.414Z,50624.00
2018-07-26T09:14:36.437Z,50400.00
2018-07-26T09:15:36.483Z,50080.00
2018-07-26T09:16:36.443Z,49504.00
2018-07-26T09:17:36.481Z,49664.00
2018-07-26T09:18:36.487Z,49312.00
2018-07-26T09:19:38.167Z,48928.00
2018-07-26T09:20:37.134Z,48800.00
2018-07-26T09:21:37.630Z,48352.00
2018-07-26T09:22:37.109Z,47840.00
2018-07-26T09:23:36.605Z,47008.00
2018-07-26T09:24:38.148Z,46816.00
2018-07-26T09:25:36.645Z,46592.00
2018-07-26T09:26:37.625Z,46720.00
2018-07-26T09:27:36.705Z,46112.00
2018-07-26T09:28:37.615Z,45344.00
2018-07-26T09:29:36.748Z,45280.00
2018-07-26T09:30:36.873Z,45440.00
2018-07-26T09:31:36.787Z,45760.00
2018-07-26T09:32:36.810Z,46656.00
2018-07-26T09:33:38.130Z,51232.00
2018-07-26T09:34:36.851Z,60640.00
2018-07-26T09:35:36.943Z,70560.00
2018-07-26T09:36:36.963Z,72800.00
2018-07-26T09:37:36.922Z,70496.00
2018-07-26T09:38:36.958Z,70112.00
2018-07-26T09:39:36.996Z,71424.00
2018-07-26T09:40:36.990Z,72640.00
2018-07-26T09:41:37.057Z,69312.00
2018-07-26T09:42:37.043Z,67136.00
2018-07-26T09:43:37.058Z,68800.00
2018-07-26T09:44:37.108Z,67072.00
2018-07-26T09:45:37.210Z,71776.00
2018-07-26T09:46:37.177Z,73824.00
2018-07-26T09:47:37.233Z,72224.00
2018-07-26T09:48:37.292Z,70400.00
2018-07-26T09:49:37.435Z,70496.00
2018-07-26T09:50:37.255Z,69152.00
2018-07-26T09:51:37.405Z,67680.00
2018-07-26T09:52:37.395Z,68928.00
2018-07-26T09:53:37.301Z,69472.00
2018-07-26T09:54:37.437Z,72544.00
2018-07-26T09:55:37.353Z,78112.00
2018-07-26T09:56:37.408Z,87840.00
2018-07-26T09:57:37.406Z,90976.00
2018-07-26T09:58:37.437Z,94176.00
2018-07-26T09:59:37.452Z,97792.00
2018-07-26T10:00:37.523Z,100928.00
2018-07-26T10:01:37.509Z,105984.00
2018-07-26T10:02:37.637Z,102848.00
2018-07-26T10:03:37.550Z,98112.00
2018-07-26T10:04:37.603Z,99296.00
2018-07-26T10:05:37.661Z,107616.00
2018-07-26T10:06:37.615Z,94624.00
2018-07-26T10:07:37.645Z,94240.00
2018-07-26T10:08:37.693Z,89152.00
2018-07-26T10:09:37.715Z,61152.00
2018-07-26T10:10:37.787Z,52608.00
2018-07-26T10:11:37.765Z,51136.00
2018-07-26T10:12:37.816Z,41504.00
2018-07-26T10:13:37.809Z,47808.00
2018-07-26T10:14:37.841Z,48000.00
2018-07-26T10:15:37.853Z,47936.00
2018-07-26T10:16:37.892Z,56320.00
2018-07-26T10:17:38.003Z,73184.00
2018-07-26T10:18:37.919Z,87520.00
2018-07-26T10:19:37.961Z,92704.00
2018-07-26T10:20:37.962Z,96608.00
2018-07-26T10:21:37.988Z,98144.00
2018-07-26T10:22:38.030Z,94336.00
2018-07-26T10:23:38.054Z,88640.00
2018-07-26T10:24:38.087Z,93344.00
2018-07-26T10:25:38.096Z,92864.00
2018-07-26T10:26:38.255Z,82496.00
2018-07-26T10:27:38.132Z,84832.00
2018-07-26T10:28:38.183Z,85344.00
2018-07-26T10:29:38.173Z,85280.00
2018-07-26T10:30:38.204Z,88384.00
2018-07-26T10:31:38.399Z,86944.00
2018-07-26T10:32:38.255Z,82880.00
2018-07-26T10:33:38.266Z,81504.00
2018-07-26T10:34:39.140Z,85696.00
2018-07-26T10:35:38.323Z,85440.00
2018-07-26T10:36:38.363Z,84352.00
2018-07-26T10:37:38.393Z,86432.00
2018-07-26T10:38:38.420Z,85600.00
2018-07-26T10:39:38.413Z,80192.00
2018-07-26T10:40:38.460Z,86688.00
2018-07-26T10:41:38.462Z,88224.00
2018-07-26T10:42:38.481Z,88352.00
2018-07-26T10:43:38.517Z,87936.00
2018-07-26T10:44:38.618Z,86080.00
2018-07-26T10:45:38.565Z,88448.00
2018-07-26T10:46:38.596Z,85664.00
2018-07-26T10:47:38.655Z,83424.00
2018-07-26T10:48:38.629Z,82816.00
2018-07-26T10:49:38.674Z,80480.00
2018-07-26T10:50:38.670Z,76384.00
2018-07-26T10:51:38.794Z,68032.00
2018-07-26T10:52:38.742Z,38240.00
2018-07-26T10:53:38.735Z,11092.00
2018-07-26T10:54:38.785Z,7220.00
2018-07-26T10:55:38.804Z,6036.00
2018-07-26T10:56:38.811Z,5920.00
2018-07-26T10:57:38.821Z,5852.00
2018-07-26T10:58:38.879Z,5780.00
2018-07-26T10:59:38.879Z,5696.00
2018-07-26T11:00:38.886Z,5632.00
2018-07-26T11:01:38.904Z,5552.00
2018-07-26T11:02:39.054Z,5500.00
2018-07-26T11:03:39.712Z,5464.00
2018-07-26T11:04:38.968Z,5420.00
2018-07-26T11:05:38.988Z,5392.00
2018-07-26T11:06:39.020Z,5364.00
2018-07-26T11:07:39.012Z,5368.00
2018-07-26T11:08:39.041Z,5380.00
2018-07-26T11:09:39.116Z,5372.00
2018-07-26T11:10:39.066Z,5356.00
2018-07-26T11:11:39.082Z,5348.00
2018-07-26T11:12:39.130Z,5328.00
2018-07-26T11:13:39.122Z,5284.00
2018-07-26T11:14:39.140Z,5244.00
2018-07-26T11:15:39.154Z,5228.00
2018-07-26T11:16:39.248Z,5220.00
2018-07-26T11:17:40.668Z,5180.00
2018-07-26T11:18:39.214Z,5144.00
2018-07-26T11:19:39.211Z,5132.00
2018-07-26T11:20:39.234Z,5140.00
2018-07-26T11:21:39.248Z,5128.00
2018-07-26T11:22:39.371Z,5160.00
2018-07-26T11:23:39.278Z,5176.00
2018-07-26T11:24:39.305Z,5152.00
2018-07-26T11:25:39.339Z,5084.00
2018-07-26T11:26:39.309Z,5024.00
2018-07-26T11:27:39.321Z,4988.00
2018-07-26T11:28:40.252Z,4952.00
2018-07-26T11:29:40.260Z,4920.00
2018-07-26T11:30:39.529Z,4912.00
2018-07-26T11:31:39.388Z,4916.00
2018-07-26T11:32:40.191Z,4904.00
2018-07-26T11:33:39.415Z,4880.00
2018-07-26T11:34:39.557Z,4804.00
2018-07-26T11:35:39.476Z,4744.00
2018-07-26T11:36:39.456Z,4700.00
2018-07-26T11:37:39.500Z,4652.00
2018-07-26T11:38:39.495Z,4628.00
2018-07-26T11:39:39.535Z,4640.00
2018-07-26T11:40:39.512Z,4660.00
2018-07-26T11:41:39.527Z,4680.00
2018-07-26T11:42:39.546Z,4684.00
2018-07-26T11:43:44.264Z,4688.00
2018-07-26T11:44:40.197Z,4664.00
2018-07-26T11:45:39.622Z,4648.00
2018-07-26T11:46:39.586Z,4660.00
2018-07-26T11:47:39.647Z,4708.00
2018-07-26T11:48:39.612Z,4744.00
2018-07-26T11:49:39.628Z,4780.00
2018-07-26T11:50:39.632Z,4756.00
2018-07-26T11:51:39.656Z,4708.00
2018-07-26T11:52:39.712Z,4680.00
2018-07-26T11:53:39.683Z,4648.00
2018-07-26T11:54:39.698Z,4612.00
2018-07-26T11:55:39.716Z,4580.00
2018-07-26T11:56:39.716Z,4548.00
2018-07-26T11:57:39.864Z,4516.00
2018-07-26T11:58:39.735Z,4492.00
2018-07-26T11:59:39.775Z,4440.00
2018-07-26T12:00:39.786Z,4376.00
2018-07-26T12:01:39.792Z,4344.00
2018-07-26T12:02:39.784Z,4348.00
2018-07-26T12:03:39.808Z,4384.00
2018-07-26T12:04:39.806Z,4388.00
2018-07-26T12:05:39.841Z,4432.00
2018-07-26T12:06:39.850Z,4480.00
2018-07-26T12:07:39.962Z,4516.00
2018-07-26T12:08:39.859Z,4596.00
2018-07-26T12:09:39.869Z,4612.00
2018-07-26T12:10:39.953Z,4620.00
2018-07-26T12:11:39.903Z,4652.00
2018-07-26T12:12:40.701Z,4776.00
2018-07-26T12:13:39.925Z,4952.00
2018-07-26T12:14:39.966Z,5072.00
2018-07-26T12:15:40.011Z,5116.00
2018-07-26T12:16:40.031Z,4960.00
2018-07-26T12:17:40.122Z,4452.00
2018-07-26T12:18:40.022Z,4372.00
2018-07-26T12:19:40.116Z,4388.00
2018-07-26T12:20:40.196Z,4416.00
2018-07-26T12:21:40.094Z,4432.00
2018-07-26T12:22:40.713Z,4504.00
2018-07-26T12:23:40.075Z,4704.00
2018-07-26T12:24:40.794Z,4892.00
2018-07-26T12:25:40.124Z,4884.00
2018-07-26T12:26:40.162Z,4712.00
2018-07-26T12:27:40.143Z,4548.00
2018-07-26T12:28:40.169Z,4452.00
2018-07-26T12:29:42.857Z,4412.00
2018-07-26T12:30:40.196Z,4460.00
2018-07-26T12:31:40.199Z,4528.00
2018-07-26T12:32:40.212Z,4620.00
2018-07-26T12:33:40.214Z,4752.00
2018-07-26T12:34:40.208Z,5012.00
2018-07-26T12:35:40.269Z,4904.00
2018-07-26T12:36:40.249Z,4668.00
2018-07-26T12:37:40.256Z,4576.00
2018-07-26T12:38:40.282Z,4456.00
2018-07-26T12:39:40.251Z,4428.00
2018-07-26T12:40:40.289Z,4480.00